Time;durP1;ratioP1;P1;durP2;ratioP2;P2;SDS_P1;SDS_P2;PMS_P1;PMS_P2;Temp;Humidity;BMP_temperature;BMP_pressure;BME280_temperature;BME280_humidity;BME280_pressure;Samples;Min_cycle;Max_cycle;Signal;HPM_P1;HPM_P2
2023/02/06 00:02:05;;;;;;;10.43;5.03;;;4.50;99.90;;;;;;5114896;28;20450;-55
2023/02/06 00:04:34;;;;;;;10.50;3.90;;;4.40;99.90;;;;;;5114265;28;20480;-63
2023/02/06 00:07:01;;;;;;;9.57;4.30;;;4.40;99.90;;;;;;5115605;28;20454;-55
2023/02/06 00:09:28;;;;;;;9.93;4.50;;;4.30;99.90;;;;;;5116288;28;20452;-53
2023/02/06 00:11:55;;;;;;;10.33;4.77;;;4.20;99.90;;;;;;5116290;28;20444;-56
2023/02/06 00:14:22;;;;;;;8.47;4.73;;;4.00;99.90;;;;;;5116017;28;20438;-52
2023/02/06 00:16:50;;;;;;;13.20;6.07;;;4.10;99.90;;;;;;5115549;28;20444;-54
2023/02/06 00:19:17;;;;;;;13.47;7.10;;;4.20;99.90;;;;;;5116045;28;20449;-56
2023/02/06 00:21:45;;;;;;;14.67;5.60;;;4.00;99.90;;;;;;5115243;28;20427;-50
2023/02/06 00:24:12;;;;;;;9.37;5.77;;;4.00;99.90;;;;;;5115812;28;20456;-52
2023/02/06 00:26:40;;;;;;;10.30;5.27;;;4.10;99.90;;;;;;5114811;28;20455;-55
2023/02/06 00:29:07;;;;;;;10.60;4.90;;;4.00;99.90;;;;;;5114867;28;20456;-55
2023/02/06 00:31:34;;;;;;;15.43;5.13;;;4.00;99.90;;;;;;5114089;28;20449;-55
2023/02/06 00:34:02;;;;;;;14.00;6.70;;;4.00;99.90;;;;;;5115767;28;20456;-56
2023/02/06 00:36:29;;;;;;;10.67;5.13;;;4.00;99.90;;;;;;5116445;28;20419;-55
2023/02/06 00:38:58;;;;;;;10.40;5.10;;;4.00;99.90;;;;;;5117022;28;20547;-56
2023/02/06 00:41:25;;;;;;;9.13;4.63;;;4.10;99.90;;;;;;5116830;28;20900;-53
2023/02/06 00:43:52;;;;;;;13.00;6.30;;;4.20;99.90;;;;;;5116482;28;20457;-56
2023/02/06 00:46:19;;;;;;;16.30;6.00;;;4.30;99.90;;;;;;5117423;28;20987;-56
2023/02/06 00:48:46;;;;;;;11.53;4.70;;;4.30;99.90;;;;;;5118537;28;20459;-56
2023/02/06 00:51:13;;;;;;;12.17;5.67;;;4.30;99.90;;;;;;5119148;28;20444;-53
2023/02/06 00:53:40;;;;;;;10.17;5.37;;;4.30;99.90;;;;;;5119224;28;20530;-53
2023/02/06 00:56:09;;;;;;;14.40;6.60;;;4.20;99.90;;;;;;5121017;28;20445;-50
2023/02/06 00:58:36;;;;;;;15.57;6.47;;;4.20;99.90;;;;;;5118724;28;20456;-55
2023/02/06 01:01:03;;;;;;;10.80;4.50;;;4.10;99.90;;;;;;5119534;28;20445;-53
2023/02/06 01:03:30;;;;;;;13.83;7.20;;;4.30;99.90;;;;;;5118857;28;20456;-52
2023/02/06 01:05:57;;;;;;;16.47;6.53;;;4.40;99.90;;;;;;5119428;28;20884;-54
2023/02/06 01:08:24;;;;;;;13.50;5.77;;;4.40;99.90;;;;;;5118816;28;20898;-56
2023/02/06 01:10:51;;;;;;;13.30;5.90;;;4.40;99.90;;;;;;5119328;28;20420;-55
2023/02/06 01:13:20;;;;;;;17.70;7.60;;;4.50;99.90;;;;;;5118203;28;20456;-56
2023/02/06 01:15:47;;;;;;;15.97;6.97;;;4.30;99.90;;;;;;5119000;28;20445;-56
2023/02/06 01:18:14;;;;;;;13.30;6.43;;;4.30;99.90;;;;;;5118072;28;20459;-56
2023/02/06 01:20:41;;;;;;;14.90;6.40;;;4.30;99.90;;;;;;5119241;28;20440;-54
2023/02/06 01:23:08;;;;;;;16.20;6.77;;;4.30;99.90;;;;;;5118960;28;20499;-55
2023/02/06 01:25:36;;;;;;;14.30;6.63;;;4.20;99.90;;;;;;5118565;28;20884;-56
2023/02/06 01:28:03;;;;;;;17.03;6.77;;;4.10;99.90;;;;;;5117861;28;20484;-55
2023/02/06 01:30:32;;;;;;;12.13;5.80;;;4.20;99.90;;;;;;5117480;28;20423;-52
2023/02/06 01:32:59;;;;;;;13.77;5.67;;;4.30;99.90;;;;;;5117507;28;20462;-54
2023/02/06 01:35:28;;;;;;;11.80;5.73;;;4.40;99.90;;;;;;5116040;28;20898;-54
2023/02/06 01:37:55;;;;;;;12.60;6.60;;;4.30;99.90;;;;;;5117253;28;20823;-56
2023/02/06 01:40:22;;;;;;;14.50;6.57;;;4.30;99.90;;;;;;5116575;28;20449;-54
2023/02/06 01:42:49;;;;;;;13.13;6.13;;;4.20;99.90;;;;;;5117240;28;20872;-55
2023/02/06 01:45:45;;;;;;;12.10;6.77;;;4.10;99.90;;;;;;5115765;28;20416;-55
2023/02/06 01:48:17;;;;;;;12.90;5.53;;;4.10;99.90;;;;;;5114797;28;20961;-56
2023/02/06 01:50:50;;;;;;;14.37;7.37;;;4.20;99.90;;;;;;5117849;28;20915;-55
2023/02/06 01:53:19;;;;;;;16.57;6.80;;;4.40;99.90;;;;;;5118295;28;20455;-54
2023/02/06 01:55:48;;;;;;;16.80;7.20;;;4.40;99.90;;;;;;5118593;28;20444;-54
2023/02/06 01:58:19;;;;;;;17.67;8.50;;;4.40;99.90;;;;;;5118212;28;20495;-56
2023/02/06 02:00:48;;;;;;;14.20;6.07;;;4.40;99.90;;;;;;5116339;28;21074;-54
2023/02/06 02:03:15;;;;;;;16.03;7.37;;;4.40;99.90;;;;;;5118198;28;20462;-55
2023/02/06 02:05:45;;;;;;;14.40;5.13;;;4.10;99.90;;;;;;5117258;28;20456;-56
2023/02/06 02:08:18;;;;;;;11.77;5.83;;;3.90;99.90;;;;;;5116955;28;20480;-56
2023/02/06 02:10:45;;;;;;;17.30;7.30;;;4.00;99.90;;;;;;5117013;28;20451;-55
2023/02/06 02:13:12;;;;;;;16.70;6.30;;;4.00;99.90;;;;;;5117428;28;20477;-57
2023/02/06 02:15:45;;;;;;;14.40;6.50;;;4.10;99.90;;;;;;5116642;28;20416;-56
2023/02/06 02:18:27;;;;;;;25.40;8.33;;;4.10;99.90;;;;;;5116768;28;20434;-56
2023/02/06 02:21:31;;;;;;;17.63;6.93;;;4.10;99.90;;;;;;5116949;28;20451;-56
2023/02/06 02:24:07;;;;;;;12.73;6.10;;;4.30;99.90;;;;;;5065243;28;20427;-56
2023/02/06 02:27:04;;;;;;;21.93;8.37;;;4.40;99.90;;;;;;5116623;28;20877;-53
2023/02/06 02:30:09;;;;;;;19.83;7.90;;;4.40;99.90;;;;;;5117313;28;20449;-54
2023/02/06 02:33:36;;;;;;;14.33;6.30;;;4.30;99.90;;;;;;5110483;28;20831;-55
2023/02/06 02:36:13;;;;;;;21.60;7.10;;;4.50;99.90;;;;;;5117295;28;20739;-55
2023/02/06 02:38:52;;;;;;;19.27;9.10;;;4.40;99.90;;;;;;5117401;28;20448;-55
2023/02/06 02:41:26;;;;;;;11.53;7.13;;;4.30;99.90;;;;;;5116840;28;20452;-54
2023/02/06 02:44:00;;;;;;;13.30;6.03;;;4.10;99.90;;;;;;5116671;28;20475;-55
2023/02/06 02:46:31;;;;;;;19.10;8.07;;;4.10;99.90;;;;;;5116134;28;20788;-56
2023/02/06 02:49:05;;;;;;;15.50;6.80;;;4.00;99.90;;;;;;5114369;28;20423;-54
2023/02/06 02:51:35;;;;;;;17.40;7.73;;;4.10;99.90;;;;;;5115611;28;20444;-55
2023/02/06 02:54:02;;;;;;;16.40;8.43;;;4.10;99.90;;;;;;5116127;28;20480;-50
2023/02/06 02:56:32;;;;;;;16.50;6.97;;;4.00;99.90;;;;;;5115464;28;20445;-55
2023/02/06 02:59:03;;;;;;;13.70;7.17;;;3.90;99.90;;;;;;5116158;28;20453;-54
2023/02/06 03:01:32;;;;;;;16.93;8.77;;;3.90;99.90;;;;;;5115740;28;20443;-56
2023/02/06 03:04:04;;;;;;;18.53;8.10;;;4.00;99.90;;;;;;5117215;28;20459;-55
2023/02/06 03:06:54;;;;;;;18.97;7.30;;;4.20;99.90;;;;;;5117045;28;20452;-55
2023/02/06 03:09:33;;;;;;;15.33;5.73;;;4.30;99.90;;;;;;5116578;28;20768;-55
2023/02/06 03:12:07;;;;;;;16.47;6.20;;;4.30;99.90;;;;;;5116179;28;20441;-55
2023/02/06 03:14:41;;;;;;;13.20;6.33;;;4.30;99.90;;;;;;5117012;28;20449;-56
2023/02/06 03:17:14;;;;;;;16.47;6.53;;;4.30;99.90;;;;;;5116325;28;20441;-56
2023/02/06 03:19:45;;;;;;;16.30;8.20;;;4.50;99.90;;;;;;5116263;28;20426;-53
2023/02/06 03:22:15;;;;;;;14.20;6.67;;;4.30;99.90;;;;;;5116298;28;20780;-56
2023/02/06 03:24:42;;;;;;;16.30;8.50;;;4.30;99.90;;;;;;5115374;28;20456;-54
2023/02/06 03:27:14;;;;;;;15.27;7.70;;;4.30;99.90;;;;;;5115516;28;20546;-51
2023/02/06 03:29:42;;;;;;;16.30;6.87;;;4.20;99.90;;;;;;5114624;28;20452;-51
2023/02/06 03:32:15;;;;;;;14.27;6.70;;;4.20;99.90;;;;;;5114932;28;20445;-51
2023/02/06 03:34:48;;;;;;;15.20;8.20;;;4.10;99.90;;;;;;5115860;28;20876;-54
2023/02/06 03:37:17;;;;;;;17.13;8.10;;;4.00;99.90;;;;;;5115721;28;20441;-53
2023/02/06 03:39:44;;;;;;;14.40;6.50;;;3.80;99.90;;;;;;5115902;28;20434;-55
2023/02/06 03:42:14;;;;;;;18.57;7.60;;;3.70;99.90;;;;;;5115904;28;20441;-56
2023/02/06 03:44:45;;;;;;;12.70;7.03;;;3.80;99.90;;;;;;5116800;28;20456;-56
2023/02/06 03:47:14;;;;;;;12.50;7.70;;;3.80;99.90;;;;;;5116187;28;20961;-54
2023/02/06 03:49:42;;;;;;;17.03;8.47;;;3.90;99.90;;;;;;5114939;28;20456;-56
2023/02/06 03:52:13;;;;;;;17.00;7.20;;;3.90;99.90;;;;;;5115628;28;20448;-54
2023/02/06 03:54:47;;;;;;;17.63;7.40;;;4.00;99.90;;;;;;5115096;28;20455;-51
2023/02/06 03:57:18;;;;;;;20.47;8.37;;;4.10;99.90;;;;;;5115876;28;20440;-50
2023/02/06 03:59:45;;;;;;;16.53;7.70;;;4.20;99.90;;;;;;5115295;28;20452;-50
2023/02/06 04:02:14;;;;;;;19.37;8.63;;;4.30;99.90;;;;;;5116093;28;20449;-55
2023/02/06 04:04:44;;;;;;;14.30;7.00;;;4.30;99.90;;;;;;5115835;28;20427;-56
2023/02/06 04:07:16;;;;;;;19.73;8.57;;;4.10;99.90;;;;;;5118090;28;20931;-56
2023/02/06 04:09:45;;;;;;;15.70;6.43;;;4.00;99.90;;;;;;5119714;28;20456;-59
2023/02/06 04:12:13;;;;;;;18.07;6.67;;;3.90;99.90;;;;;;5120676;28;20444;-50
2023/02/06 04:14:40;;;;;;;17.33;8.20;;;3.90;99.90;;;;;;5120321;28;20456;-50
2023/02/06 04:17:07;;;;;;;16.83;8.07;;;3.90;99.90;;;;;;5120159;28;20460;-55
2023/02/06 04:19:34;;;;;;;15.93;6.77;;;3.90;99.90;;;;;;5118532;28;20476;-53
2023/02/06 04:22:02;;;;;;;17.47;7.43;;;3.80;99.90;;;;;;5118768;28;20781;-52
2023/02/06 04:24:29;;;;;;;20.13;8.53;;;3.70;99.90;;;;;;5118538;28;20756;-55
2023/02/06 04:26:57;;;;;;;17.67;7.80;;;3.80;99.90;;;;;;5119081;28;20923;-55
2023/02/06 04:29:24;;;;;;;15.60;9.80;;;3.80;99.90;;;;;;5118876;28;20459;-54
2023/02/06 04:31:52;;;;;;;16.80;8.87;;;3.80;99.90;;;;;;5119294;28;20419;-53
2023/02/06 04:34:19;;;;;;;13.80;7.17;;;3.70;99.90;;;;;;5118885;28;20444;-54
2023/02/06 04:36:46;;;;;;;17.07;7.73;;;3.60;99.90;;;;;;5120181;28;20450;-56
2023/02/06 04:39:13;;;;;;;17.43;8.67;;;3.50;99.90;;;;;;5120077;28;20445;-53
2023/02/06 04:41:40;;;;;;;14.63;7.43;;;3.40;99.90;;;;;;5119218;28;20440;-54
2023/02/06 04:44:08;;;;;;;21.73;9.90;;;3.40;99.90;;;;;;5119533;28;21029;-51
2023/02/06 04:46:35;;;;;;;20.10;8.27;;;3.60;99.90;;;;;;5119143;28;20422;-54
2023/02/06 04:49:02;;;;;;;14.97;7.50;;;3.60;99.90;;;;;;5119703;28;20935;-53
2023/02/06 04:51:30;;;;;;;12.67;6.87;;;3.70;99.90;;;;;;5119346;28;20452;-51
2023/02/06 04:53:57;;;;;;;10.70;6.30;;;3.60;99.90;;;;;;5117652;28;20481;-56
2023/02/06 04:56:24;;;;;;;17.13;7.80;;;3.80;99.90;;;;;;5118368;28;20455;-51
2023/02/06 04:58:51;;;;;;;18.40;9.40;;;3.80;99.90;;;;;;5119714;28;20468;-54
2023/02/06 05:01:20;;;;;;;14.07;7.47;;;4.00;99.90;;;;;;5119205;28;20539;-56
2023/02/06 05:03:48;;;;;;;12.90;6.60;;;3.90;99.90;;;;;;5119301;28;20475;-56
2023/02/06 05:06:16;;;;;;;13.73;7.47;;;3.80;99.90;;;;;;5117749;28;20452;-54
2023/02/06 05:08:43;;;;;;;17.20;8.50;;;3.80;99.90;;;;;;5119339;28;20484;-52
2023/02/06 05:11:10;;;;;;;14.90;7.40;;;3.60;99.90;;;;;;5117558;28;20906;-56
2023/02/06 05:13:37;;;;;;;9.70;6.30;;;3.60;99.90;;;;;;5117146;28;20452;-56
2023/02/06 05:16:06;;;;;;;13.40;6.83;;;3.50;99.90;;;;;;5116789;28;20449;-54
2023/02/06 05:18:35;;;;;;;16.97;8.47;;;3.50;99.90;;;;;;5117000;28;20464;-54
2023/02/06 05:21:02;;;;;;;15.27;7.23;;;3.60;99.90;;;;;;5117607;28;20442;-54
2023/02/06 05:23:31;;;;;;;17.67;7.33;;;3.70;99.90;;;;;;5117129;28;20445;-55
2023/02/06 05:25:58;;;;;;;14.20;6.50;;;3.80;99.90;;;;;;5116590;28;20487;-56
2023/02/06 05:28:26;;;;;;;13.80;8.00;;;3.90;99.90;;;;;;5117237;28;20463;-55
2023/02/06 05:30:53;;;;;;;15.10;6.70;;;4.00;99.90;;;;;;5117308;28;20448;-56
2023/02/06 05:33:20;;;;;;;13.93;7.20;;;4.00;99.90;;;;;;5115691;28;20908;-54
2023/02/06 05:35:48;;;;;;;17.13;9.17;;;3.80;99.90;;;;;;5117070;28;20449;-50
2023/02/06 05:38:15;;;;;;;14.70;8.00;;;3.70;99.90;;;;;;5115847;28;20954;-55
2023/02/06 05:40:42;;;;;;;17.20;7.73;;;3.80;99.90;;;;;;5117280;28;20411;-49
2023/02/06 05:43:09;;;;;;;14.83;6.70;;;3.80;99.90;;;;;;5117958;28;20883;-55
2023/02/06 05:45:36;;;;;;;11.27;6.90;;;3.80;99.90;;;;;;5118232;28;20419;-51
2023/02/06 05:48:04;;;;;;;16.37;7.80;;;3.80;99.90;;;;;;5118762;28;20484;-49
2023/02/06 05:50:31;;;;;;;15.60;7.77;;;3.50;99.90;;;;;;5118146;28;20444;-52
2023/02/06 05:53:00;;;;;;;13.73;6.70;;;3.50;99.90;;;;;;5118273;28;20456;-55
2023/02/06 05:55:27;;;;;;;17.17;7.83;;;3.50;99.90;;;;;;5117797;28;20479;-54
2023/02/06 05:57:54;;;;;;;15.20;7.33;;;3.50;99.90;;;;;;5116460;28;20423;-52
2023/02/06 06:00:21;;;;;;;12.00;6.00;;;3.40;99.90;;;;;;5117517;28;20868;-58
2023/02/06 06:02:48;;;;;;;13.87;7.53;;;3.50;99.90;;;;;;5116657;28;20518;-58
2023/02/06 06:05:16;;;;;;;15.10;8.33;;;3.50;99.90;;;;;;5116640;28;20718;-57
2023/02/06 06:07:43;;;;;;;9.53;5.20;;;3.60;99.90;;;;;;5115588;28;20876;-58
2023/02/06 06:10:11;;;;;;;13.73;7.07;;;3.60;99.90;;;;;;5116397;28;20981;-56
2023/02/06 06:12:38;;;;;;;14.40;9.53;;;3.40;99.90;;;;;;5116975;28;20911;-57
2023/02/06 06:15:08;;;;;;;14.27;7.13;;;3.20;99.90;;;;;;5117200;28;20415;-58
2023/02/06 06:17:35;;;;;;;12.40;6.50;;;3.10;99.90;;;;;;5115546;28;20422;-58
2023/02/06 06:20:02;;;;;;;21.30;6.60;;;3.10;99.90;;;;;;5114884;28;20438;-58
2023/02/06 06:22:29;;;;;;;14.00;8.00;;;3.00;99.90;;;;;;5114436;28;20436;-59
2023/02/06 06:24:56;;;;;;;15.30;6.60;;;3.00;99.90;;;;;;5115693;28;20845;-57
2023/02/06 06:27:25;;;;;;;8.97;4.83;;;3.20;99.90;;;;;;5117238;28;20415;-60
2023/02/06 06:29:52;;;;;;;15.23;10.93;;;3.30;99.90;;;;;;5114824;28;20483;-58
2023/02/06 06:32:19;;;;;;;15.67;8.73;;;3.50;99.90;;;;;;5115217;28;20420;-55
2023/02/06 06:34:46;;;;;;;13.40;7.53;;;3.30;99.90;;;;;;5115521;28;20427;-58
2023/02/06 06:37:14;;;;;;;11.17;6.27;;;3.40;99.90;;;;;;5114338;28;20448;-58
2023/02/06 06:39:41;;;;;;;11.23;6.77;;;3.20;99.90;;;;;;5113974;28;20457;-58
2023/02/06 06:42:08;;;;;;;15.10;7.27;;;3.30;99.90;;;;;;5114993;28;20454;-58
2023/02/06 06:44:36;;;;;;;12.20;7.73;;;3.40;99.90;;;;;;5115365;28;20427;-57
2023/02/06 06:47:04;;;;;;;14.47;7.00;;;3.50;99.90;;;;;;5114601;28;20472;-57
2023/02/06 06:49:32;;;;;;;9.30;4.43;;;3.40;99.90;;;;;;5112697;28;20476;-58
2023/02/06 06:51:59;;;;;;;9.73;5.37;;;3.60;99.90;;;;;;5115456;28;20463;-58
2023/02/06 06:54:26;;;;;;;12.10;5.40;;;3.60;99.90;;;;;;5114683;28;20477;-58
2023/02/06 06:56:53;;;;;;;14.33;6.13;;;3.50;99.90;;;;;;5114269;28;20414;-58
2023/02/06 06:59:20;;;;;;;7.53;3.60;;;3.40;99.90;;;;;;5115509;28;21001;-58
2023/02/06 07:01:51;;;;;;;9.83;5.17;;;3.30;99.90;;;;;;5114710;28;20475;-58
2023/02/06 07:04:19;;;;;;;14.53;6.23;;;3.40;99.90;;;;;;5114692;28;20475;-58
2023/02/06 07:06:46;;;;;;;11.43;6.67;;;3.40;99.90;;;;;;5113882;28;20902;-58
2023/02/06 07:09:13;;;;;;;7.80;3.53;;;3.50;99.90;;;;;;5113615;28;20488;-58
2023/02/06 07:11:41;;;;;;;11.20;5.40;;;3.80;99.90;;;;;;5113712;28;20451;-57
2023/02/06 07:14:08;;;;;;;6.90;3.60;;;4.00;99.90;;;;;;5113203;28;20449;-56
2023/02/06 07:16:35;;;;;;;9.43;5.50;;;3.90;99.90;;;;;;5113065;28;20936;-56
2023/02/06 07:19:03;;;;;;;9.93;5.67;;;4.00;99.90;;;;;;5113430;28;20919;-56
2023/02/06 07:21:30;;;;;;;7.13;4.90;;;4.20;99.90;;;;;;5112319;28;20448;-56
2023/02/06 07:23:57;;;;;;;7.40;5.50;;;4.40;99.90;;;;;;5112609;28;20460;-54
2023/02/06 07:26:24;;;;;;;7.30;3.93;;;4.40;99.90;;;;;;5113164;28;20445;-55
2023/02/06 07:28:51;;;;;;;7.93;3.97;;;4.30;99.90;;;;;;5113816;28;20491;-57
2023/02/06 07:31:18;;;;;;;9.63;4.00;;;4.20;99.90;;;;;;5113409;28;20780;-55
2023/02/06 07:33:45;;;;;;;9.27;4.53;;;4.20;99.90;;;;;;5098790;28;20476;-55
2023/02/06 07:36:17;;;;;;;11.60;5.20;;;4.20;99.90;;;;;;5097516;28;20461;-52
2023/02/06 07:38:44;;;;;;;8.03;4.10;;;4.20;99.90;;;;;;5115361;28;20460;-53
2023/02/06 07:41:11;;;;;;;8.50;4.17;;;4.20;99.90;;;;;;5113930;28;20423;-51
2023/02/06 07:43:39;;;;;;;9.90;4.90;;;4.20;99.90;;;;;;5113863;28;20457;-53
2023/02/06 07:46:06;;;;;;;8.40;4.47;;;4.30;99.90;;;;;;5111552;28;20496;-52
2023/02/06 07:48:33;;;;;;;7.27;3.40;;;4.10;99.90;;;;;;5095756;28;20492;-53
2023/02/06 07:51:05;;;;;;;8.27;4.33;;;4.10;99.90;;;;;;5092232;28;20458;-54
2023/02/06 07:53:33;;;;;;;7.53;4.47;;;4.10;99.90;;;;;;5095818;28;20476;-52
2023/02/06 07:56:01;;;;;;;6.63;3.43;;;4.20;99.90;;;;;;5110260;28;20437;-55
2023/02/06 07:58:28;;;;;;;6.63;3.47;;;4.50;99.90;;;;;;5111554;28;20502;-55
2023/02/06 08:00:55;;;;;;;8.80;4.97;;;4.60;99.90;;;;;;5100462;28;20468;-50
2023/02/06 08:03:22;;;;;;;5.43;2.97;;;4.40;99.90;;;;;;5091210;28;20893;-53
2023/02/06 08:05:49;;;;;;;7.33;3.87;;;4.50;99.90;;;;;;5099705;28;21191;-54
2023/02/06 08:08:16;;;;;;;5.67;2.03;;;4.60;99.90;;;;;;5092744;28;20900;-50
2023/02/06 08:10:44;;;;;;;7.07;4.07;;;4.60;99.90;;;;;;5087991;28;20880;-54
2023/02/06 08:13:11;;;;;;;7.07;4.83;;;4.80;99.90;;;;;;5090433;28;20454;-54
2023/02/06 08:15:38;;;;;;;5.93;3.60;;;4.90;99.90;;;;;;5090981;28;20468;-55
2023/02/06 08:18:05;;;;;;;8.70;4.30;;;4.80;99.90;;;;;;5090056;28;20454;-56
2023/02/06 08:20:33;;;;;;;6.00;3.23;;;4.70;99.90;;;;;;5094128;28;20454;-52
2023/02/06 08:23:00;;;;;;;7.70;4.63;;;4.20;99.90;;;;;;5091231;28;20466;-54
2023/02/06 08:25:27;;;;;;;5.27;2.63;;;4.30;99.90;;;;;;5090969;28;20441;-52
2023/02/06 08:27:56;;;;;;;7.63;2.57;;;4.20;99.90;;;;;;5091335;28;20446;-53
2023/02/06 08:30:23;;;;;;;5.80;2.53;;;4.40;99.90;;;;;;5092923;28;20481;-54
2023/02/06 08:32:50;;;;;;;6.53;3.43;;;4.30;99.90;;;;;;5091349;28;20449;-54
2023/02/06 08:35:18;;;;;;;5.73;2.03;;;4.40;99.90;;;;;;5092490;28;20877;-49
2023/02/06 08:37:45;;;;;;;4.80;2.37;;;4.40;99.90;;;;;;5092052;28;20466;-52
2023/02/06 08:40:12;;;;;;;5.03;2.80;;;4.20;99.90;;;;;;5091448;28;20441;-53
2023/02/06 08:42:39;;;;;;;6.17;2.30;;;4.00;99.90;;;;;;5092340;28;20452;-51
2023/02/06 08:45:10;;;;;;;6.63;2.57;;;4.10;99.90;;;;;;5090817;28;20457;-52
2023/02/06 08:47:37;;;;;;;6.20;2.47;;;4.10;99.90;;;;;;5090617;28;20445;-50
2023/02/06 08:50:05;;;;;;;6.77;3.10;;;4.10;99.90;;;;;;5091387;28;21091;-52
2023/02/06 08:52:32;;;;;;;5.87;2.73;;;4.00;99.90;;;;;;5090399;28;20507;-52
2023/02/06 08:54:59;;;;;;;7.20;2.60;;;3.90;99.90;;;;;;5093540;28;20926;-53
2023/02/06 08:57:26;;;;;;;6.90;2.77;;;3.80;99.90;;;;;;5094858;28;20899;-54
2023/02/06 08:59:53;;;;;;;6.63;2.57;;;3.90;99.90;;;;;;5110933;28;20457;-54
2023/02/06 09:02:22;;;;;;;8.60;3.10;;;4.00;99.90;;;;;;5112165;28;20441;-54
2023/02/06 09:04:49;;;;;;;4.07;2.50;;;4.00;99.90;;;;;;5095171;28;20450;-54
2023/02/06 09:07:17;;;;;;;6.50;2.67;;;3.90;99.90;;;;;;5112189;28;20627;-54
2023/02/06 09:09:44;;;;;;;4.53;2.13;;;3.70;99.90;;;;;;5110070;28;20488;-54
2023/02/06 09:12:11;;;;;;;4.00;1.30;;;3.60;99.90;;;;;;5108885;28;20424;-54
2023/02/06 09:14:38;;;;;;;4.23;2.20;;;3.60;99.90;;;;;;5110894;28;20427;-54
2023/02/06 09:17:06;;;;;;;5.17;1.60;;;3.60;99.90;;;;;;5111167;28;20875;-53
2023/02/06 09:19:34;;;;;;;3.73;1.53;;;3.60;99.90;;;;;;5096456;28;20449;-53
2023/02/06 09:22:01;;;;;;;3.60;1.60;;;3.60;99.90;;;;;;5101834;28;20912;-54
2023/02/06 09:24:31;;;;;;;5.10;2.33;;;3.60;99.90;;;;;;5094420;28;20888;-52
2023/02/06 09:26:58;;;;;;;5.90;2.20;;;3.60;99.90;;;;;;5102723;28;20463;-53
2023/02/06 09:29:27;;;;;;;3.83;1.80;;;3.60;99.90;;;;;;5115068;28;20480;-51
2023/02/06 09:31:55;;;;;;;4.73;1.60;;;3.60;99.90;;;;;;5113999;28;20447;-49
2023/02/06 09:34:24;;;;;;;4.53;1.70;;;3.70;99.90;;;;;;5115062;28;20456;-54
2023/02/06 09:36:55;;;;;;;6.83;1.40;;;3.80;99.90;;;;;;5105657;28;20547;-53
2023/02/06 09:39:22;;;;;;;4.60;1.80;;;3.80;99.90;;;;;;5105099;28;20538;-51
2023/02/06 09:41:53;;;;;;;4.27;1.83;;;3.80;99.90;;;;;;5115040;28;20419;-51
2023/02/06 09:44:29;;;;;;;8.33;2.07;;;3.80;99.90;;;;;;5113597;28;20453;-56
2023/02/06 09:47:01;;;;;;;3.20;1.30;;;3.80;99.90;;;;;;5114874;28;20440;-55
2023/02/06 09:49:35;;;;;;;5.10;1.47;;;3.90;99.90;;;;;;5114093;28;20487;-52
2023/02/06 09:52:37;;;;;;;2.10;1.07;;;3.70;99.90;;;;;;5115884;28;20445;-52
2023/02/06 09:55:12;;;;;;;4.43;3.10;;;3.60;99.90;;;;;;5115191;28;20468;-54
2023/02/06 09:57:49;;;;;;;3.80;1.43;;;3.60;99.90;;;;;;5113672;28;20415;-53
2023/02/06 10:00:37;;;;;;;4.97;1.90;;;3.80;99.90;;;;;;5114101;28;20443;-55
2023/02/06 10:03:24;;;;;;;4.40;1.20;;;3.80;99.90;;;;;;5114348;28;20459;-53
2023/02/06 10:06:06;;;;;;;1.80;1.20;;;3.90;99.90;;;;;;5113895;28;20448;-52
2023/02/06 10:08:39;;;;;;;5.23;1.50;;;4.00;99.90;;;;;;5113801;28;20454;-49
2023/02/06 10:11:12;;;;;;;5.13;1.63;;;4.10;99.90;;;;;;5113139;28;20481;-49
2023/02/06 10:13:43;;;;;;;2.93;0.90;;;4.20;99.90;;;;;;5114159;28;20898;-53
2023/02/06 10:16:32;;;;;;;1.60;0.90;;;4.10;99.90;;;;;;5113117;28;20444;-53
2023/02/06 10:19:04;;;;;;;5.10;1.30;;;4.10;99.90;;;;;;5114390;28;20480;-52
2023/02/06 10:21:36;;;;;;;2.30;1.00;;;4.20;99.90;;;;;;5114877;28;20441;-50
2023/02/06 10:24:13;;;;;;;2.00;0.90;;;4.10;99.90;;;;;;5114471;28;20927;-49
2023/02/06 10:26:41;;;;;;;1.43;0.90;;;4.20;99.90;;;;;;5113759;28;20452;-55
2023/02/06 10:29:16;;;;;;;1.63;0.90;;;4.10;99.90;;;;;;5113568;28;20431;-51
2023/02/06 10:31:55;;;;;;;2.23;1.43;;;3.90;99.90;;;;;;5113842;28;20500;-53
2023/02/06 10:34:35;;;;;;;6.37;1.60;;;3.90;99.90;;;;;;5109525;28;20460;-50
2023/02/06 10:37:22;;;;;;;2.97;1.30;;;3.80;99.90;;;;;;5096062;28;20464;-49
2023/02/06 10:40:02;;;;;;;2.43;0.90;;;3.90;99.90;;;;;;5103602;28;20194;-50
2023/02/06 10:42:39;;;;;;;1.00;0.67;;;4.00;99.90;;;;;;5099173;28;20457;-54
2023/02/06 10:45:14;;;;;;;1.60;0.70;;;4.10;99.90;;;;;;5102926;28;20459;-50
2023/02/06 10:47:48;;;;;;;1.13;0.60;;;4.30;99.90;;;;;;5095655;28;20484;-55
2023/02/06 10:50:22;;;;;;;1.33;0.80;;;4.40;99.90;;;;;;5109573;28;21099;-54
2023/02/06 10:52:51;;;;;;;1.17;0.70;;;4.60;99.90;;;;;;5103830;28;20461;-53
2023/02/06 10:55:23;;;;;;;2.30;0.60;;;4.40;99.90;;;;;;5090736;28;20466;-52
2023/02/06 10:57:57;;;;;;;5.87;0.90;;;4.50;99.90;;;;;;5090403;28;20457;-53
2023/02/06 11:00:26;;;;;;;2.37;0.87;;;4.90;99.90;;;;;;5093498;28;20454;-50
2023/02/06 11:02:56;;;;;;;2.27;0.83;;;5.30;99.90;;;;;;5104678;28;20492;-53
2023/02/06 11:05:25;;;;;;;3.80;0.80;;;5.50;99.90;;;;;;5096964;28;20453;-54
2023/02/06 11:07:56;;;;;;;1.93;0.90;;;5.20;99.90;;;;;;5092349;28;20457;-54
2023/02/06 11:10:26;;;;;;;0.83;0.50;;;5.00;99.90;;;;;;5093710;28;20512;-53
2023/02/06 11:13:00;;;;;;;1.27;0.60;;;4.50;99.90;;;;;;5112398;28;20567;-53
2023/02/06 11:15:34;;;;;;;3.33;0.83;;;4.40;99.90;;;;;;5111210;28;20446;-52
2023/02/06 11:18:04;;;;;;;1.13;0.67;;;4.30;99.90;;;;;;5093900;28;20564;-53
2023/02/06 11:20:35;;;;;;;2.23;0.57;;;4.20;99.90;;;;;;5095793;28;20453;-51
2023/02/06 11:23:17;;;;;;;1.20;0.93;;;4.10;99.90;;;;;;5095649;28;20461;-52
2023/02/06 11:25:46;;;;;;;2.00;1.00;;;4.10;99.90;;;;;;5103711;28;20542;-50
2023/02/06 11:28:17;;;;;;;1.70;0.53;;;4.30;99.90;;;;;;5098296;28;20457;-55
2023/02/06 11:30:57;;;;;;;1.03;0.57;;;4.10;99.90;;;;;;5100912;28;20935;-53
2023/02/06 11:33:29;;;;;;;1.20;0.50;;;4.20;99.90;;;;;;5102829;28;20453;-54
2023/02/06 11:35:59;;;;;;;1.80;0.80;;;4.10;99.90;;;;;;5091484;28;20503;-55
2023/02/06 11:38:28;;;;;;;1.17;0.70;;;4.10;99.90;;;;;;5092339;28;20466;-52
2023/02/06 11:41:00;;;;;;;1.77;0.93;;;4.20;99.90;;;;;;5096637;28;20782;-54
2023/02/06 11:43:30;;;;;;;1.30;0.80;;;4.50;99.90;;;;;;5091703;28;20542;-53
2023/02/06 11:46:13;;;;;;;1.30;0.60;;;4.60;99.90;;;;;;5091586;28;20450;-55
2023/02/06 11:48:42;;;;;;;1.63;0.83;;;4.50;99.90;;;;;;5092056;28;20487;-56
2023/02/06 11:51:12;;;;;;;1.20;0.73;;;4.50;99.90;;;;;;5090917;28;20489;-51
2023/02/06 11:53:54;;;;;;;3.77;1.00;;;4.50;99.90;;;;;;5090176;28;20476;-53
2023/02/06 11:56:22;;;;;;;3.57;0.80;;;4.50;99.90;;;;;;5089598;28;20449;-55
2023/02/06 11:59:02;;;;;;;1.57;0.70;;;4.60;99.90;;;;;;5091302;28;20460;-53
2023/02/06 12:01:40;;;;;;;1.30;0.63;;;4.40;99.90;;;;;;5090870;28;20582;-54
2023/02/06 12:04:22;;;;;;;3.20;1.00;;;4.10;99.90;;;;;;5089421;28;20453;-56
2023/02/06 12:06:53;;;;;;;2.00;0.90;;;4.20;99.90;;;;;;5091379;28;20499;-54
2023/02/06 12:09:20;;;;;;;3.63;1.03;;;4.20;99.90;;;;;;5091508;28;20435;-54
2023/02/06 12:11:54;;;;;;;1.60;0.80;;;4.40;99.90;;;;;;5090455;28;20574;-55
2023/02/06 12:14:24;;;;;;;2.57;0.80;;;4.40;99.90;;;;;;5093644;28;20472;-56
2023/02/06 12:16:52;;;;;;;1.87;0.90;;;4.30;99.90;;;;;;5103076;28;20444;-53
2023/02/06 12:19:28;;;;;;;2.40;0.80;;;4.10;99.90;;;;;;5099846;28;20444;-54
2023/02/06 12:22:02;;;;;;;2.13;0.80;;;4.10;99.90;;;;;;5100976;28;20750;-55
2023/02/06 12:24:33;;;;;;;3.63;0.80;;;4.20;99.90;;;;;;5093935;28;20507;-58
2023/02/06 12:27:11;;;;;;;3.23;1.20;;;4.40;99.90;;;;;;5099957;28;20460;-53
2023/02/06 12:29:42;;;;;;;1.70;0.90;;;4.40;99.90;;;;;;5092009;28;20706;-54
2023/02/06 12:32:15;;;;;;;2.30;1.00;;;4.50;99.90;;;;;;5091503;28;20446;-53
2023/02/06 12:34:52;;;;;;;1.30;0.80;;;4.30;99.90;;;;;;5094176;28;20486;-55
2023/02/06 12:37:30;;;;;;;2.10;0.90;;;4.30;99.90;;;;;;5093159;28;20920;-54
2023/02/06 12:39:58;;;;;;;4.23;1.10;;;4.30;99.90;;;;;;5093449;28;20425;-50
2023/02/06 12:42:37;;;;;;;2.83;1.13;;;4.40;99.90;;;;;;5093782;28;20445;-54
2023/02/06 12:45:14;;;;;;;3.90;1.00;;;4.30;99.90;;;;;;5094537;28;20452;-55
2023/02/06 12:47:49;;;;;;;5.53;0.90;;;4.30;99.90;;;;;;5096617;28;20424;-52
2023/02/06 12:50:23;;;;;;;4.20;0.90;;;4.40;99.90;;;;;;5106124;28;20783;-56
2023/02/06 12:52:58;;;;;;;1.50;0.90;;;4.40;99.90;;;;;;5108736;28;20444;-54
2023/02/06 12:55:29;;;;;;;2.43;1.00;;;4.40;99.90;;;;;;5095960;28;20500;-55
2023/02/06 12:57:58;;;;;;;3.70;1.10;;;4.40;99.90;;;;;;5095239;28;20441;-54
2023/02/06 13:00:50;;;;;;;1.83;0.90;;;4.50;99.90;;;;;;5107080;28;20444;-54
2023/02/06 13:03:31;;;;;;;2.30;1.03;;;4.50;99.90;;;;;;5091362;28;20471;-56
2023/02/06 13:06:11;;;;;;;2.30;1.10;;;4.40;99.90;;;;;;5102140;28;20428;-55
2023/02/06 13:08:43;;;;;;;1.80;0.97;;;4.30;99.90;;;;;;5094739;28;20920;-55
2023/02/06 13:11:26;;;;;;;3.90;1.00;;;4.30;99.90;;;;;;5100949;28;20502;-55